Orchid, Florida
Current Conditions -  °F | °C
As of 8:53 AM on Thursday 29 Jan 2015 (Local Time) from KVRB Reporting Station
Overcast Overcast  
Wind Chill: 52°   Ceiling: 4200
Heat Index: 52°   Visibility: 10mi
Dew Point: 46°   Wind: 3mph
Humidity: 80%   Direction: 290°WNW
Pressure: 30.29"   Gusts: NA
Location:  27.7066°N, 80.3826°W
Report Text: KVRB 291353Z 29003KT 10SM BKN042 OVC050 11/08 A3029 RMK AO2 SLP256 T01110078
Loading
Personal Weather Stations






























Interactive Weather Map New forecast layout! Learn more

10-Day Weather Forecast

Advertisements
Track Severe Weather on mobile